メインページ
METAR-TAF:

METAR-TAF

空港 :

ルクセンブルク-フィンデル空港

ルクセンブルク, ルクセンブルク

緯度: 49-37N, 経度: 006-13E, 海抜: 376m

現時点の気象観測

当レポートは36分前の18:50(UTC)に作成
西の風 7kt
気温 23°C
湿度 50%
気圧 1018 hPa
視程10km以上
1,500メートル以下は雲なし、積乱雲なし

METAR: ELLX 181850Z 26007KT CAVOK 23/12 Q1018 NOSIG

時間: 21:26 (19:26 UTC)

予報

当レポートは2時間26分前の17:00(UTC)に作成
予報は18日の 18時(UTC)から 19日の 24時(UTC)まで有効
西/南西の風 13kt
視程10km以上
高度4500ftの雲はほとんどない
確率 30% :
18日の 18時(UTC)から 18日の 21時(UTC)まで一時的に
西/南西の風 15kt、最大25ktの突風を伴う
高度4000ftの雲はほとんどない, 塔状積雲.
18日の 21時(UTC)から 18日の 24時(UTC)まで徐々に
南/南西の風 6kt

TAF: ELLX 181700Z 1818/1924 25013KT 9999 FEW045 PROB30 TEMPO 1818/1821 25015G25KT FEW040TCU BECMG 1821/1824 20006KT

4,000以上の空港の気象観測と天気予報(METAR報とTAF報)

利用可能な観測所は地図上に黄色い丸と赤い丸で示す。

丸の上にカーソルを重ねると観測所名を参照できる。

次にクリックすると気象観測と天気予報を参照できる。

マップの切り替え:黒色「×」印の緑ボタンをクリックして拡大、「-」印の緑ボタンをクリックして縮小、緑色の三角印をクリックして隣りの地図に切り替え


METAR-TAF: